createdAt,value
2022-11-13T00:01:26.735Z,62.65
2022-11-13T00:04:12.727Z,62.85
2022-11-13T00:06:59.288Z,62.74
2022-11-13T00:09:45.329Z,63.03
2022-11-13T00:12:30.673Z,62.74
2022-11-13T00:15:16.675Z,62.89
2022-11-13T00:18:03.497Z,62.90
2022-11-13T00:20:49.008Z,63.06
2022-11-13T00:23:36.638Z,63.06
2022-11-13T00:26:27.557Z,63.06
2022-11-13T00:29:12.531Z,63.23
2022-11-13T00:31:57.777Z,62.76
2022-11-13T00:34:48.106Z,63.04
2022-11-13T00:37:34.162Z,63.13
2022-11-13T00:40:19.458Z,63.18
2022-11-13T00:43:04.692Z,63.17
2022-11-13T00:45:50.195Z,63.36
2022-11-13T00:48:36.422Z,63.52
2022-11-13T00:51:22.253Z,63.52
2022-11-13T00:54:07.972Z,63.58
2022-11-13T00:56:53.600Z,63.51
2022-11-13T00:59:39.864Z,63.57
2022-11-13T01:02:25.758Z,63.73
2022-11-13T01:05:11.677Z,63.58
2022-11-13T01:07:57.685Z,63.59
2022-11-13T01:10:53.202Z,63.42
2022-11-13T01:13:41.643Z,63.56
2022-11-13T01:16:28.606Z,63.54
2022-11-13T01:19:14.199Z,63.88
2022-11-13T01:21:59.339Z,63.73
2022-11-13T01:24:44.672Z,63.84
2022-11-13T01:27:29.887Z,63.81
2022-11-13T01:30:15.076Z,63.65
2022-11-13T01:33:00.601Z,63.82
2022-11-13T01:35:45.951Z,63.68
2022-11-13T01:38:35.925Z,63.33
2022-11-13T01:41:25.985Z,63.56
2022-11-13T01:44:14.432Z,63.81
2022-11-13T01:46:59.921Z,63.86
2022-11-13T01:49:46.931Z,63.95
2022-11-13T01:52:36.839Z,63.61
2022-11-13T01:55:22.509Z,63.96
2022-11-13T01:58:10.360Z,63.91
2022-11-13T02:00:55.791Z,63.97
2022-11-13T02:03:41.009Z,64.06
2022-11-13T02:06:29.163Z,63.93
2022-11-13T02:09:17.885Z,63.99
2022-11-13T02:12:05.780Z,63.89
2022-11-13T02:14:54.316Z,64.19
2022-11-13T02:17:44.555Z,63.70
2022-11-13T02:20:40.705Z,64.03
2022-11-13T02:24:23.344Z,64.22
2022-11-13T02:27:38.014Z,63.91
2022-11-13T02:30:31.232Z,63.99
2022-11-13T02:33:32.936Z,64.04
2022-11-13T02:36:22.178Z,64.41
2022-11-13T02:39:11.172Z,64.04
2022-11-13T02:41:56.646Z,64.15
2022-11-13T02:44:41.848Z,64.26
2022-11-13T02:47:27.490Z,64.12
2022-11-13T02:50:13.616Z,64.17
2022-11-13T02:52:59.739Z,64.22
2022-11-13T02:55:44.978Z,64.34
2022-11-13T02:58:31.026Z,64.06
2022-11-13T03:01:16.906Z,64.11
2022-11-13T03:04:02.687Z,63.81
2022-11-13T03:06:47.817Z,64.37
2022-11-13T03:09:33.118Z,64.71
2022-11-13T03:12:18.260Z,63.99
2022-11-13T03:15:04.671Z,64.05
2022-11-13T03:17:50.050Z,63.88
2022-11-13T03:20:40.462Z,64.30
2022-11-13T03:23:25.957Z,64.24
2022-11-13T03:26:13.517Z,64.40
2022-11-13T03:28:58.800Z,64.49
2022-11-13T03:31:44.268Z,64.44
2022-11-13T03:34:29.616Z,64.40
2022-11-13T03:37:14.909Z,63.96
2022-11-13T03:39:59.987Z,64.41
2022-11-13T03:42:45.071Z,64.00
2022-11-13T03:45:30.387Z,64.36
2022-11-13T03:48:16.790Z,64.48
2022-11-13T03:51:02.736Z,64.28
2022-11-13T03:53:47.987Z,64.18
2022-11-13T03:56:33.292Z,64.30
2022-11-13T03:59:18.967Z,64.34
2022-11-13T04:02:04.253Z,64.04
2022-11-13T04:04:49.605Z,64.04
2022-11-13T04:07:34.909Z,64.39
2022-11-13T04:10:20.152Z,64.53
2022-11-13T04:13:05.453Z,64.26
2022-11-13T04:15:51.053Z,64.32
2022-11-13T04:18:36.355Z,64.30
2022-11-13T04:21:21.855Z,64.47
2022-11-13T04:24:07.025Z,64.04
2022-11-13T04:26:52.287Z,64.42
2022-11-13T04:29:39.022Z,64.25
2022-11-13T04:32:24.853Z,64.63
2022-11-13T04:35:11.242Z,64.57
2022-11-13T04:37:56.376Z,63.82
2022-11-13T04:40:42.447Z,63.95
2022-11-13T04:43:28.062Z,64.03
2022-11-13T04:46:13.198Z,64.13
2022-11-13T04:48:58.659Z,64.16
2022-11-13T04:51:43.690Z,63.94
2022-11-13T04:54:29.210Z,64.46
2022-11-13T04:57:14.251Z,64.66
2022-11-13T04:59:59.515Z,64.10
2022-11-13T05:02:44.933Z,64.44
2022-11-13T05:05:30.169Z,64.39
2022-11-13T05:08:15.361Z,64.16
2022-11-13T05:11:01.343Z,64.84
2022-11-13T05:13:46.680Z,64.56
2022-11-13T05:16:32.310Z,64.44
2022-11-13T05:19:17.657Z,64.73
2022-11-13T05:22:03.990Z,64.50
2022-11-13T05:24:49.165Z,64.34
2022-11-13T05:27:34.719Z,64.32
2022-11-13T05:30:20.426Z,64.32
2022-11-13T05:33:05.724Z,64.65
2022-11-13T05:35:50.722Z,64.63
2022-11-13T05:38:36.636Z,64.72
2022-11-13T05:41:22.851Z,64.70
2022-11-13T05:44:07.979Z,64.44
2022-11-13T05:46:53.232Z,64.60
2022-11-13T05:49:38.369Z,64.50
2022-11-13T05:52:23.482Z,64.60
2022-11-13T05:55:09.377Z,64.71
2022-11-13T05:57:54.907Z,64.94
2022-11-13T06:00:40.178Z,64.51
2022-11-13T06:03:25.360Z,64.49
2022-11-13T06:06:14.249Z,64.20
2022-11-13T06:09:01.526Z,64.49
2022-11-13T06:11:46.732Z,64.65
2022-11-13T06:14:31.922Z,64.68
2022-11-13T06:17:17.204Z,64.82
2022-11-13T06:20:02.215Z,64.51
2022-11-13T06:22:47.568Z,64.65
2022-11-13T06:25:32.645Z,64.75
2022-11-13T06:28:18.598Z,65.02
2022-11-13T06:31:09.878Z,64.97
2022-11-13T06:33:55.832Z,64.65
2022-11-13T06:36:41.135Z,64.59
2022-11-13T06:39:26.350Z,64.50
2022-11-13T06:42:11.826Z,64.74
2022-11-13T06:44:56.969Z,64.69
2022-11-13T06:47:42.004Z,64.87
2022-11-13T06:50:27.628Z,64.56
2022-11-13T06:53:13.132Z,65.50
2022-11-13T06:55:59.586Z,65.46
2022-11-13T06:58:44.994Z,65.02
2022-11-13T07:01:30.044Z,65.15
2022-11-13T07:04:15.434Z,64.94
2022-11-13T07:07:01.021Z,64.91
2022-11-13T07:09:46.550Z,65.22
2022-11-13T07:12:31.907Z,65.30
2022-11-13T07:15:17.058Z,64.59
2022-11-13T07:18:03.119Z,64.73
2022-11-13T07:20:49.014Z,65.03
2022-11-13T07:23:37.129Z,64.94
2022-11-13T07:26:22.985Z,64.66
2022-11-13T07:29:08.357Z,64.63
2022-11-13T07:31:54.445Z,64.91
2022-11-13T07:34:39.707Z,64.91
2022-11-13T07:37:25.016Z,65.00
2022-11-13T07:40:11.313Z,65.06
2022-11-13T07:42:59.035Z,64.83
2022-11-13T07:45:44.506Z,64.94
2022-11-13T07:48:30.497Z,65.17
2022-11-13T07:51:16.024Z,65.40
2022-11-13T07:54:01.524Z,65.33
2022-11-13T07:56:47.380Z,65.17
2022-11-13T07:59:32.600Z,64.93
2022-11-13T08:02:20.168Z,65.06
2022-11-13T08:05:09.076Z,64.97
2022-11-13T08:07:54.257Z,64.82
2022-11-13T08:10:39.847Z,64.60
2022-11-13T08:13:24.948Z,64.41
2022-11-13T08:16:09.983Z,64.14
2022-11-13T08:18:55.259Z,64.01
2022-11-13T08:21:40.206Z,64.07
2022-11-13T08:24:25.581Z,64.00
2022-11-13T08:27:10.711Z,64.02
2022-11-13T08:29:56.323Z,63.92
2022-11-13T08:32:41.461Z,63.90
2022-11-13T08:35:29.362Z,64.21
2022-11-13T08:38:14.975Z,64.27
2022-11-13T08:41:07.218Z,64.35
2022-11-13T08:43:54.272Z,64.05
2022-11-13T08:46:40.062Z,64.11
2022-11-13T08:49:25.524Z,64.11
2022-11-13T08:52:10.651Z,63.87
2022-11-13T08:54:56.256Z,63.86
2022-11-13T08:57:41.680Z,63.97
2022-11-13T09:00:28.768Z,64.27
2022-11-13T09:03:14.321Z,63.66
2022-11-13T09:05:59.513Z,63.47
2022-11-13T09:08:44.750Z,63.24
2022-11-13T09:11:29.850Z,62.80
2022-11-13T09:14:15.398Z,62.88
2022-11-13T09:17:00.504Z,62.61
2022-11-13T09:19:45.662Z,62.67
2022-11-13T09:22:31.153Z,63.11
2022-11-13T09:25:16.552Z,62.98
2022-11-13T09:28:02.269Z,63.02
2022-11-13T09:30:50.811Z,63.00
2022-11-13T09:33:36.361Z,62.92
2022-11-13T09:36:21.606Z,62.85
2022-11-13T09:39:06.868Z,62.71
2022-11-13T09:42:21.401Z,62.80
2022-11-13T09:45:12.372Z,62.78
2022-11-13T09:48:08.293Z,62.72
2022-11-13T09:50:54.236Z,62.75
2022-11-13T09:53:40.638Z,62.87
2022-11-13T09:56:28.455Z,62.91
2022-11-13T09:59:37.556Z,62.68
2022-11-13T10:02:58.299Z,62.72
2022-11-13T10:06:00.171Z,62.56
2022-11-13T10:08:48.269Z,62.42
2022-11-13T10:11:42.003Z,62.44
2022-11-13T10:14:37.000Z,62.35
2022-11-13T10:18:07.229Z,62.40
2022-11-13T10:21:06.789Z,62.41
2022-11-13T10:23:56.977Z,62.23
2022-11-13T10:26:42.210Z,62.34
2022-11-13T10:29:29.691Z,62.12
2022-11-13T10:32:20.381Z,61.98
2022-11-13T10:35:05.718Z,62.09
2022-11-13T10:38:03.362Z,62.01
2022-11-13T10:41:04.063Z,61.93
2022-11-13T10:43:59.740Z,61.91
2022-11-13T10:46:44.949Z,61.99
2022-11-13T10:49:30.511Z,61.64
2022-11-13T10:52:22.004Z,61.58
2022-11-13T10:55:17.874Z,61.50
2022-11-13T10:58:12.313Z,61.47
2022-11-13T11:00:57.953Z,61.49
2022-11-13T11:03:50.479Z,61.41
2022-11-13T11:07:12.825Z,61.61
2022-11-13T11:09:46.719Z,61.93
2022-11-13T11:12:31.692Z,61.68
2022-11-13T11:15:42.147Z,61.42
2022-11-13T11:18:49.189Z,61.49
2022-11-13T11:21:36.637Z,61.53
2022-11-13T11:24:31.739Z,61.54
2022-11-13T11:27:23.061Z,61.11
2022-11-13T11:30:22.119Z,61.43
2022-11-13T11:33:31.951Z,61.39
2022-11-13T11:36:41.780Z,61.34
2022-11-13T11:39:32.658Z,61.30
2022-11-13T11:42:30.446Z,61.16
2022-11-13T11:45:37.192Z,61.22
2022-11-13T11:48:28.507Z,61.23
2022-11-13T11:51:16.777Z,61.14
2022-11-13T11:54:29.090Z,61.08
2022-11-13T11:57:23.670Z,60.86
2022-11-13T12:00:15.439Z,61.01
2022-11-13T12:03:14.458Z,61.16
2022-11-13T12:06:22.615Z,61.18
2022-11-13T12:09:17.429Z,61.55
2022-11-13T12:12:25.601Z,60.87
2022-11-13T12:15:23.799Z,60.43
2022-11-13T12:18:27.168Z,60.30
2022-11-13T12:21:22.361Z,60.37
2022-11-13T12:24:25.750Z,59.79
2022-11-13T12:27:53.337Z,59.90
2022-11-13T12:30:57.386Z,59.94
2022-11-13T12:33:55.649Z,59.96
2022-11-13T12:36:46.101Z,59.69
2022-11-13T12:39:57.427Z,59.65
2022-11-13T12:42:46.133Z,59.61
2022-11-13T12:45:37.351Z,59.45
2022-11-13T12:48:33.066Z,59.48
2022-11-13T12:51:19.052Z,59.58
2022-11-13T12:54:04.639Z,59.52
2022-11-13T12:56:50.283Z,59.38
2022-11-13T12:59:52.850Z,59.46
2022-11-13T13:02:49.847Z,59.41
2022-11-13T13:06:10.531Z,59.30
2022-11-13T13:09:33.370Z,59.32
2022-11-13T13:13:19.497Z,59.20
2022-11-13T13:16:09.104Z,59.08
2022-11-13T13:19:22.819Z,58.85
2022-11-13T13:22:12.530Z,58.69
2022-11-13T13:25:03.534Z,58.90
2022-11-13T13:27:59.991Z,59.08
2022-11-13T13:31:07.745Z,58.77
2022-11-13T13:34:01.815Z,58.75
2022-11-13T13:47:11.560Z,58.55
2022-11-13T13:49:57.408Z,58.53
2022-11-13T13:52:44.295Z,58.61
2022-11-13T13:55:45.268Z,58.53
2022-11-13T13:58:34.356Z,58.36
2022-11-13T14:01:30.148Z,58.50
2022-11-13T14:04:19.952Z,58.33
2022-11-13T14:07:22.853Z,58.45
2022-11-13T14:10:22.206Z,58.36
2022-11-13T14:13:22.274Z,58.59
2022-11-13T14:16:08.143Z,58.30
2022-11-13T14:19:03.959Z,58.60
2022-11-13T14:21:53.019Z,58.25
2022-11-13T14:24:45.019Z,58.73
2022-11-13T14:27:31.191Z,58.20
2022-11-13T14:30:25.444Z,58.33
2022-11-13T14:33:17.727Z,58.22
2022-11-13T14:36:04.151Z,58.74
2022-11-13T14:38:52.190Z,58.37
2022-11-13T14:41:40.100Z,58.46
2022-11-13T14:44:30.961Z,58.57
2022-11-13T14:47:29.385Z,58.22
2022-11-13T14:50:27.363Z,58.10
2022-11-13T14:53:12.838Z,58.26
2022-11-13T14:56:02.088Z,57.89
2022-11-13T14:58:47.895Z,58.15
2022-11-13T15:01:33.410Z,58.17
2022-11-13T15:04:19.009Z,58.12
2022-11-13T15:07:29.683Z,58.25
2022-11-13T15:10:18.970Z,57.99
2022-11-13T15:13:11.795Z,58.23
2022-11-13T15:15:56.979Z,58.05
2022-11-13T15:18:54.856Z,58.10
2022-11-13T15:21:40.935Z,58.13
2022-11-13T15:24:26.634Z,57.99
2022-11-13T15:27:18.559Z,58.04
2022-11-13T15:30:04.132Z,57.79
2022-11-13T15:32:53.981Z,58.08
2022-11-13T15:35:39.657Z,58.24
2022-11-13T15:38:24.830Z,58.23
2022-11-13T15:41:20.520Z,58.46
2022-11-13T15:44:12.592Z,58.28
2022-11-13T15:46:57.828Z,58.55
2022-11-13T15:49:56.610Z,58.78
2022-11-13T15:52:52.375Z,58.16
2022-11-13T15:55:40.964Z,58.26
2022-11-13T15:58:29.297Z,57.91
2022-11-13T16:01:19.417Z,57.96
2022-11-13T16:04:05.997Z,58.14
2022-11-13T16:06:52.738Z,58.05
2022-11-13T16:09:38.041Z,57.95
2022-11-13T16:12:23.328Z,58.24
2022-11-13T16:15:09.755Z,58.43
2022-11-13T16:17:57.514Z,58.20
2022-11-13T16:20:42.822Z,58.18
2022-11-13T16:23:28.159Z,58.23
2022-11-13T16:26:26.889Z,58.38
2022-11-13T16:29:21.970Z,58.28
2022-11-13T16:32:14.518Z,58.42
2022-11-13T16:35:00.047Z,58.40
2022-11-13T16:37:45.768Z,58.59
2022-11-13T16:40:31.332Z,58.67
2022-11-13T16:43:16.958Z,58.66
2022-11-13T16:46:05.298Z,58.48
2022-11-13T16:48:50.688Z,58.96
2022-11-13T16:51:36.687Z,59.06
2022-11-13T16:54:22.197Z,58.97
2022-11-13T16:57:12.207Z,58.65
2022-11-13T16:59:57.412Z,59.28
2022-11-13T17:02:44.336Z,59.41
2022-11-13T17:05:29.610Z,59.40
2022-11-13T17:08:14.941Z,59.00
2022-11-13T17:11:00.182Z,59.31
2022-11-13T17:13:53.506Z,59.39
2022-11-13T17:16:38.893Z,59.30
2022-11-13T17:19:23.945Z,59.15
2022-11-13T17:22:09.618Z,59.34
2022-11-13T17:24:55.589Z,59.31
2022-11-13T17:27:40.691Z,59.20
2022-11-13T17:30:26.229Z,59.14
2022-11-13T17:33:11.314Z,59.16
2022-11-13T17:35:57.695Z,59.36
2022-11-13T17:38:42.719Z,59.34
2022-11-13T17:41:31.210Z,59.05
2022-11-13T17:44:17.755Z,59.27
2022-11-13T17:47:02.738Z,59.08
2022-11-13T17:49:48.228Z,59.32
2022-11-13T17:52:33.584Z,59.32
2022-11-13T17:55:18.515Z,59.48
2022-11-13T17:58:04.319Z,58.80
2022-11-13T18:00:50.485Z,59.01
2022-11-13T18:03:36.073Z,59.15
2022-11-13T18:06:22.308Z,58.79
2022-11-13T18:09:07.813Z,58.81
2022-11-13T18:11:52.749Z,58.54
2022-11-13T18:14:38.087Z,58.47
2022-11-13T18:17:23.370Z,58.84
2022-11-13T18:20:09.878Z,58.83
2022-11-13T18:22:55.712Z,58.85
2022-11-13T18:25:40.766Z,58.73
2022-11-13T18:28:25.889Z,58.69
2022-11-13T18:31:18.063Z,58.72
2022-11-13T18:34:05.764Z,58.63
2022-11-13T18:36:51.442Z,58.57
2022-11-13T18:39:36.665Z,58.51
2022-11-13T18:42:22.047Z,58.40
2022-11-13T18:45:08.414Z,58.41
2022-11-13T18:47:53.645Z,58.55
2022-11-13T18:50:39.316Z,58.45
2022-11-13T18:53:24.830Z,58.17
2022-11-13T18:56:15.240Z,58.43
2022-11-13T18:59:00.640Z,58.70
2022-11-13T19:01:46.038Z,58.62
2022-11-13T19:04:31.697Z,58.47
2022-11-13T19:07:17.148Z,58.24
2022-11-13T19:10:02.451Z,58.38
2022-11-13T19:12:48.620Z,57.82
2022-11-13T19:15:38.957Z,58.35
2022-11-13T19:18:24.217Z,58.25
2022-11-13T19:21:14.094Z,58.37
2022-11-13T19:24:01.254Z,58.37
2022-11-13T19:26:46.582Z,58.53
2022-11-13T19:29:32.315Z,58.49
2022-11-13T19:32:17.689Z,58.31
2022-11-13T19:35:03.273Z,58.26
2022-11-13T19:37:49.632Z,58.15
2022-11-13T19:40:34.968Z,58.48
2022-11-13T19:43:20.199Z,58.43
2022-11-13T19:46:07.976Z,58.51
2022-11-13T19:48:53.258Z,58.24
2022-11-13T19:51:38.320Z,58.38
2022-11-13T19:54:23.808Z,58.29
2022-11-13T19:57:09.200Z,58.40
2022-11-13T19:59:54.584Z,58.30
2022-11-13T20:02:39.593Z,58.35
2022-11-13T20:05:24.911Z,58.53
2022-11-13T20:08:11.718Z,58.33
2022-11-13T20:11:05.295Z,58.42
2022-11-13T20:13:50.273Z,58.36
2022-11-13T20:16:35.350Z,58.33
2022-11-13T20:19:20.716Z,58.33
2022-11-13T20:22:06.214Z,58.20
2022-11-13T20:24:51.220Z,58.37
2022-11-13T20:27:37.448Z,58.39
2022-11-13T20:30:23.100Z,58.54
2022-11-13T20:33:08.425Z,58.39
2022-11-13T20:35:54.775Z,58.17
2022-11-13T20:38:48.860Z,58.49
2022-11-13T20:41:35.634Z,58.53
2022-11-13T20:44:20.619Z,58.61
2022-11-13T20:47:06.006Z,58.16
2022-11-13T20:49:51.326Z,58.25
2022-11-13T20:52:36.611Z,58.49
2022-11-13T20:55:21.880Z,58.20
2022-11-13T20:58:07.326Z,58.30
2022-11-13T21:00:52.330Z,58.12
2022-11-13T21:03:41.355Z,58.16
2022-11-13T21:06:27.095Z,58.13
2022-11-13T21:09:12.373Z,58.04
2022-11-13T21:11:57.461Z,58.11
2022-11-13T21:14:44.152Z,58.33
2022-11-13T21:17:29.520Z,58.48
2022-11-13T21:20:14.971Z,58.25
2022-11-13T21:23:00.153Z,58.56
2022-11-13T21:25:45.532Z,58.49
2022-11-13T21:28:33.691Z,58.36
2022-11-13T21:31:20.856Z,58.75
2022-11-13T21:34:06.127Z,59.03
2022-11-13T21:36:51.339Z,59.12
2022-11-13T21:39:39.916Z,59.27
2022-11-13T21:42:25.328Z,59.81
2022-11-13T21:45:10.845Z,59.88
2022-11-13T21:47:56.355Z,60.09
2022-11-13T21:50:41.481Z,60.13
2022-11-13T21:53:26.812Z,59.75
2022-11-13T21:56:15.593Z,59.59
2022-11-13T21:59:01.031Z,59.68
2022-11-13T22:01:46.282Z,59.42
2022-11-13T22:04:31.646Z,59.68
2022-11-13T22:07:17.303Z,59.71
2022-11-13T22:10:07.982Z,59.15
2022-11-13T22:12:53.542Z,59.85
2022-11-13T22:15:39.016Z,60.16
2022-11-13T22:18:24.608Z,60.08
2022-11-13T22:21:12.387Z,60.36
2022-11-13T22:23:59.213Z,60.39
2022-11-13T22:26:45.507Z,60.52
2022-11-13T22:29:30.439Z,60.65
2022-11-13T22:32:15.836Z,60.63
2022-11-13T22:35:01.015Z,60.62
2022-11-13T22:37:46.049Z,60.81
2022-11-13T22:40:33.414Z,60.74
2022-11-13T22:43:18.480Z,61.08
2022-11-13T22:46:09.626Z,60.90
2022-11-13T22:48:56.923Z,60.84
2022-11-13T22:51:42.946Z,60.92
2022-11-13T22:54:28.224Z,61.20
2022-11-13T22:57:13.303Z,61.15
2022-11-13T22:59:58.704Z,61.27
2022-11-13T23:02:47.257Z,61.35
2022-11-13T23:05:35.395Z,61.53
2022-11-13T23:08:20.643Z,61.53
2022-11-13T23:11:07.770Z,61.75
2022-11-13T23:13:55.700Z,61.67
2022-11-13T23:16:40.801Z,61.46
2022-11-13T23:19:26.223Z,61.70
2022-11-13T23:22:11.306Z,61.81
2022-11-13T23:24:56.831Z,61.78
2022-11-13T23:27:42.337Z,61.77
2022-11-13T23:30:27.427Z,61.86
2022-11-13T23:33:14.903Z,61.94
2022-11-13T23:36:00.556Z,61.86
2022-11-13T23:38:45.965Z,61.77
2022-11-13T23:41:31.240Z,61.70
2022-11-13T23:44:16.692Z,62.01
2022-11-13T23:47:03.519Z,61.92
2022-11-13T23:49:48.845Z,61.74
2022-11-13T23:52:34.660Z,61.90
2022-11-13T23:55:21.471Z,62.01
2022-11-13T23:58:11.053Z,62.11
